Time;durP1;ratioP1;P1;durP2;ratioP2;P2;SDS_P1;SDS_P2;PMS_P1;PMS_P2;Temp;Humidity;BMP_temperature;BMP_pressure;BME280_temperature;BME280_humidity;BME280_pressure;Samples;Min_cycle;Max_cycle;Signal;HPM_P1;HPM_P2
2021/12/07 00:04:08;;;;;;;;;;;4.00;99.90;;;;;;10316005;28;84973;-48
2021/12/07 00:09:10;;;;;;;;;;;3.90;99.90;;;;;;10332009;28;84151;-47
2021/12/07 00:14:22;;;;;;;;;;;4.00;99.90;;;;;;10332310;28;84284;-50
2021/12/07 00:19:22;;;;;;;;;;;3.90;99.90;;;;;;10333009;28;84035;-48
2021/12/07 00:24:23;;;;;;;;;;;3.70;99.90;;;;;;10332753;28;85098;-52
2021/12/07 00:29:23;;;;;;;;;;;3.60;99.90;;;;;;10330987;28;84091;-50
2021/12/07 00:39:26;;;;;;;;;;;3.30;99.90;;;;;;10328008;28;85934;-48
2021/12/07 00:44:27;;;;;;;;;;;3.20;99.90;;;;;;10328390;28;84809;-47
2021/12/07 00:49:29;;;;;;;;;;;3.10;99.90;;;;;;10328091;28;87284;-47
2021/12/07 00:54:30;;;;;;;;;;;3.00;99.90;;;;;;10312324;28;85989;-47
2021/12/07 00:59:31;;;;;;;;;;;3.00;99.90;;;;;;10327975;28;85840;-46
2021/12/07 01:04:32;;;;;;;;;;;3.00;99.90;;;;;;10329565;28;85805;-49
2021/12/07 01:25:36;;;;;;;;;;;3.00;99.90;;;;;;10326856;28;85964;-50
2021/12/07 01:30:44;;;;;;;;;;;3.20;99.90;;;;;;10326538;28;85736;-46
2021/12/07 02:02:47;;;;;;;;;;;3.70;99.90;;;;;;10326466;28;86741;-48
2021/12/07 02:07:48;;;;;;;;;;;3.70;99.90;;;;;;10325547;28;86044;-48
2021/12/07 02:12:50;;;;;;;;;;;3.70;99.90;;;;;;10325763;28;85807;-46
2021/12/07 02:17:52;;;;;;;;;;;3.70;99.90;;;;;;10324671;28;86690;-47
2021/12/07 02:22:53;;;;;;;;;;;3.70;99.90;;;;;;10325462;28;86534;-48
2021/12/07 02:27:54;;;;;;;;;;;3.80;99.90;;;;;;10324991;28;85623;-46
2021/12/07 02:32:55;;;;;;;;;;;3.70;99.90;;;;;;10326515;28;84190;-46
2021/12/07 02:37:57;;;;;;;;;;;3.80;99.90;;;;;;10324635;28;86850;-49
2021/12/07 02:42:59;;;;;;;;;;;3.80;99.90;;;;;;10308782;28;85755;-47
2021/12/07 02:48:00;;;;;;;;;;;3.80;99.90;;;;;;10324728;28;86839;-47
2021/12/07 02:53:00;;;;;;;;;;;3.80;99.90;;;;;;10330778;28;85910;-47
2021/12/07 02:58:01;;;;;;;;;;;3.90;99.90;;;;;;10332702;28;84112;-53
2021/12/07 03:03:07;;;;;;;;;;;3.90;99.90;;;;;;10331816;28;87014;-47
2021/12/07 03:29:44;;;;;;;;;;;3.80;99.90;;;;;;10287798;28;86888;-48
2021/12/07 03:34:46;;;;;;;;;;;3.90;99.90;;;;;;10330780;28;86885;-48
2021/12/07 03:39:48;;;;;;;;;;;3.90;99.90;;;;;;10313241;28;85960;-47
2021/12/07 03:44:49;;;;;;;;;;;3.90;99.90;;;;;;10330008;28;84143;-48
2021/12/07 03:49:51;;;;;;;;;;;3.80;99.90;;;;;;10313239;28;86666;-47
2021/12/07 03:54:53;;;;;;;;;;;3.80;99.90;;;;;;10329745;28;85628;-47
2021/12/07 03:59:53;;;;;;;;;;;3.80;99.90;;;;;;10312454;28;86920;-48
2021/12/07 04:05:00;;;;;;;;;;;3.70;99.90;;;;;;10328597;28;86054;-48
2021/12/07 04:10:03;;;;;;;;;;;3.70;99.90;;;;;;10328707;28;86837;-46
2021/12/07 04:15:05;;;;;;;;;;;3.80;99.90;;;;;;10328376;28;85773;-44
2021/12/07 04:20:07;;;;;;;;;;;3.70;99.90;;;;;;10387035;22;86784;-54
2021/12/07 04:25:09;;;;;;;;;;;3.60;99.90;;;;;;10397260;28;87224;-53
2021/12/07 04:30:15;;;;;;;;;;;3.70;99.90;;;;;;10412596;28;84186;-56
2021/12/07 04:35:15;;;;;;;;;;;3.60;99.90;;;;;;10423326;28;84240;-53
2021/12/07 04:40:18;;;;;;;;;;;3.70;99.90;;;;;;10421177;28;84338;-56
2021/12/07 04:45:38;;;;;;;;;;;3.70;99.90;;;;;;10425809;28;84452;-53
2021/12/07 05:00:42;;;;;;;;;;;3.70;99.90;;;;;;10421987;28;84014;-56
2021/12/07 05:05:50;;;;;;;;;;;3.70;99.90;;;;;;10417495;28;83953;-57
2021/12/07 05:16:07;;;;;;;;;;;3.80;99.90;;;;;;10409620;28;84213;-52
2021/12/07 05:42:53;;;;;;;;;;;3.70;99.90;;;;;;10294144;28;87134;-56
2021/12/07 05:47:54;;;;;;;;;;;3.70;99.90;;;;;;10376556;28;84132;-53
2021/12/07 05:52:55;;;;;;;;;;;3.70;99.90;;;;;;10396840;28;84902;-52
2021/12/07 05:57:55;;;;;;;;;;;3.60;99.90;;;;;;10396427;28;84903;-56
2021/12/07 06:02:57;;;;;;;;;;;3.50;99.90;;;;;;10396050;28;84144;-55
2021/12/07 06:07:57;;;;;;;;;;;3.50;99.90;;;;;;10395333;28;84928;-57
2021/12/07 06:12:58;;;;;;;;;;;3.50;99.90;;;;;;10397468;28;85067;-58
2021/12/07 06:17:59;;;;;;;;;;;3.50;99.90;;;;;;10393430;28;84941;-54
2021/12/07 06:22:59;;;;;;;;;;;3.60;99.90;;;;;;10396315;28;85249;-51
2021/12/07 06:28:00;;;;;;;;;;;3.60;99.90;;;;;;10417062;28;84725;-55
2021/12/07 06:33:01;;;;;;;;;;;3.70;99.90;;;;;;10425347;28;84117;-56
2021/12/07 06:38:01;;;;;;;;;;;3.70;99.90;;;;;;10415126;28;84937;-54
2021/12/07 06:43:02;;;;;;;;;;;3.70;99.90;;;;;;10416098;28;84960;-54
2021/12/07 06:48:03;;;;;;;;;;;3.70;99.90;;;;;;10416956;28;84449;-54
2021/12/07 06:53:04;;;;;;;;;;;3.70;99.90;;;;;;10408747;28;84016;-54
2021/12/07 06:58:04;;;;;;;;;;;3.70;99.90;;;;;;10426221;28;85592;-51
2021/12/07 07:03:05;;;;;;;;;;;3.60;99.90;;;;;;10412234;28;84555;-51
2021/12/07 07:08:07;;;;;;;;;;;3.60;99.90;;;;;;10418050;28;84975;-52
2021/12/07 07:13:07;;;;;;;;;;;3.60;99.90;;;;;;10418832;28;85152;-54
2021/12/07 07:18:08;;;;;;;;;;;3.60;99.90;;;;;;10417073;28;84139;-53
2021/12/07 07:23:08;;;;;;;;;;;3.60;99.90;;;;;;10417704;28;84987;-52
2021/12/07 07:28:09;;;;;;;;;;;3.60;99.90;;;;;;10416735;28;84070;-51
2021/12/07 07:33:09;;;;;;;;;;;3.50;99.90;;;;;;10417951;28;84116;-55
2021/12/07 07:38:10;;;;;;;;;;;3.50;99.90;;;;;;10416127;28;84594;-52
2021/12/07 07:43:11;;;;;;;;;;;3.50;99.90;;;;;;10417865;28;84838;-51
2021/12/07 07:48:31;;;;;;;;;;;3.50;99.90;;;;;;10417835;28;84349;-52
2021/12/07 07:53:32;;;;;;;;;;;3.60;99.90;;;;;;10418457;28;84121;-54
2021/12/07 07:58:35;;;;;;;;;;;3.60;99.90;;;;;;10416036;28;85713;-55
2021/12/07 08:03:36;;;;;;;;;;;3.70;99.90;;;;;;10415457;28;84931;-51
2021/12/07 08:08:38;;;;;;;;;;;3.70;99.90;;;;;;10417524;28;84793;-55
2021/12/07 08:13:38;;;;;;;;;;;3.80;99.90;;;;;;10418177;28;84632;-56
2021/12/07 08:18:39;;;;;;;;;;;4.00;99.90;;;;;;10414947;28;84158;-52
2021/12/07 08:23:40;;;;;;;;;;;4.10;99.90;;;;;;10417386;28;83998;-54
2021/12/07 08:28:41;;;;;;;;;;;4.30;99.90;;;;;;10417894;28;85053;-53
2021/12/07 08:33:41;;;;;;;;;;;4.30;99.90;;;;;;10416782;28;86749;-53
2021/12/07 08:38:42;;;;;;;;;;;4.30;99.90;;;;;;10415639;28;85670;-52
2021/12/07 08:43:42;;;;;;;;;;;4.20;99.90;;;;;;10418080;28;84975;-53
2021/12/07 08:48:43;;;;;;;;;;;4.30;99.90;;;;;;10414598;28;84962;-52
2021/12/07 08:53:51;;;;;;;;;;;4.30;99.90;;;;;;10415430;28;85769;-55
2021/12/07 09:04:16;;;;;;;;;;;4.50;99.90;;;;;;10416442;28;84901;-52
2021/12/07 09:09:17;;;;;;;;;;;4.70;99.90;;;;;;10414411;28;84735;-51
2021/12/07 09:14:18;;;;;;;;;;;5.10;99.90;;;;;;10413416;28;85806;-53
2021/12/07 09:19:20;;;;;;;;;;;5.20;99.90;;;;;;10414985;28;84226;-55
2021/12/07 09:24:21;;;;;;;;;;;5.30;99.90;;;;;;10415486;28;84037;-52
2021/12/07 09:29:22;;;;;;;;;;;5.20;99.90;;;;;;10414498;28;84977;-51
2021/12/07 09:34:22;;;;;;;;;;;5.00;99.90;;;;;;10415710;28;84124;-55
2021/12/07 09:39:23;;;;;;;;;;;4.80;99.90;;;;;;10413926;28;84100;-54
2021/12/07 09:44:24;;;;;;;;;;;4.70;99.90;;;;;;10414055;28;84747;-53
2021/12/07 09:49:24;;;;;;;;;;;4.70;99.90;;;;;;10415202;28;84969;-56
2021/12/07 09:54:25;;;;;;;;;;;4.60;99.90;;;;;;10414500;28;84167;-53
2021/12/07 09:59:26;;;;;;;;;;;4.70;99.90;;;;;;10412181;28;84075;-57
2021/12/07 10:04:27;;;;;;;;;;;4.80;99.90;;;;;;10414366;28;84102;-51
2021/12/07 10:09:28;;;;;;;;;;;4.90;99.90;;;;;;10413191;28;84148;-54
2021/12/07 10:14:36;;;;;;;;;;;5.10;99.90;;;;;;10413777;28;84822;-52
2021/12/07 10:19:42;;;;;;;;;;;5.30;99.90;;;;;;10410592;22;84978;-49
2021/12/07 10:24:48;;;;;;;;;;;5.40;99.90;;;;;;10366208;28;84858;-48
2021/12/07 10:29:51;;;;;;;;;;;5.30;99.90;;;;;;10367625;28;84927;-49
2021/12/07 10:34:51;;;;;;;;;;;5.30;99.90;;;;;;10367764;28;84078;-48
2021/12/07 10:39:55;;;;;;;;;;;5.30;99.90;;;;;;10367037;28;84969;-47
2021/12/07 10:44:58;;;;;;;;;;;5.50;99.90;;;;;;10366221;28;85031;-48
2021/12/07 10:50:01;;;;;;;;;;;5.40;99.90;;;;;;10365830;28;84003;-49
2021/12/07 10:55:12;;;;;;;;;;;5.30;99.90;;;;;;10365917;28;84860;-47
2021/12/07 11:00:34;;;;;;;;;;;5.40;99.90;;;;;;10364925;28;84100;-51
2021/12/07 11:05:37;;;;;;;;;;;5.60;99.90;;;;;;10365513;28;84083;-51
2021/12/07 11:10:39;;;;;;;;;;;5.70;99.90;;;;;;10366523;28;85106;-48
2021/12/07 11:15:51;;;;;;;;;;;5.70;99.90;;;;;;10372079;28;85248;-48
2021/12/07 11:20:55;;;;;;;;;;;5.70;99.90;;;;;;10371899;28;84728;-48
2021/12/07 11:31:09;;;;;;;;;;;6.10;99.90;;;;;;10373824;28;84138;-48
2021/12/07 11:36:30;;;;;;;;;;;6.10;99.90;;;;;;10372938;28;84814;-51
2021/12/07 11:41:32;;;;;;;;;;;6.10;99.90;;;;;;10372598;28;84085;-51
2021/12/07 11:46:35;;;;;;;;;;;6.00;99.90;;;;;;10371956;28;84999;-49
2021/12/07 11:51:36;;;;;;;;;;;6.00;99.90;;;;;;10371313;28;84131;-49
2021/12/07 11:56:36;;;;;;;;;;;5.90;99.90;;;;;;10370844;28;84870;-49
2021/12/07 12:01:37;;;;;;;;;;;5.90;99.90;;;;;;10371200;28;84940;-49
2021/12/07 12:06:38;;;;;;;;;;;5.90;99.90;;;;;;10371221;28;85054;-51
2021/12/07 12:11:42;;;;;;;;;;;5.90;99.90;;;;;;10372371;28;84949;-47
2021/12/07 12:16:56;;;;;;;;;;;5.90;99.90;;;;;;10370689;28;84927;-47
2021/12/07 12:22:12;;;;;;;;;;;5.80;99.90;;;;;;10369764;28;84922;-48
2021/12/07 12:27:25;;;;;;;;;;;6.00;99.90;;;;;;10369488;28;84231;-48
2021/12/07 12:32:26;;;;;;;;;;;6.20;99.90;;;;;;10370513;28;84961;-49
2021/12/07 12:37:29;;;;;;;;;;;6.20;99.90;;;;;;10369688;28;84164;-49
2021/12/07 12:42:36;;;;;;;;;;;6.20;99.90;;;;;;10369965;28;84728;-54
2021/12/07 12:47:38;;;;;;;;;;;6.50;99.90;;;;;;10368204;28;84369;-49
2021/12/07 12:52:42;;;;;;;;;;;6.50;99.90;;;;;;10370054;28;84907;-48
2021/12/07 12:57:48;;;;;;;;;;;6.40;99.90;;;;;;10369914;28;84945;-50
2021/12/07 13:02:53;;;;;;;;;;;6.40;99.90;;;;;;10371269;28;84950;-51
2021/12/07 13:08:10;;;;;;;;;;;6.40;99.90;;;;;;10371150;28;84784;-51
2021/12/07 13:13:24;;;;;;;;;;;6.20;99.90;;;;;;10372225;28;84897;-51
2021/12/07 13:18:32;;;;;;;;;;;6.40;99.90;;;;;;10369694;28;84061;-49
2021/12/07 13:23:32;;;;;;;;;;;6.60;99.90;;;;;;10369033;28;84866;-50
2021/12/07 13:28:33;;;;;;;;;;;6.40;99.90;;;;;;10368895;28;84052;-48
2021/12/07 13:33:38;;;;;;;;;;;6.30;99.90;;;;;;10366583;28;85003;-49
2021/12/07 13:38:38;;;;;;;;;;;6.40;99.90;;;;;;10366235;28;84006;-52
2021/12/07 13:43:40;;;;;;;;;;;6.40;99.90;;;;;;10366931;28;86874;-53
2021/12/07 13:48:43;;;;;;;;;;;6.40;99.90;;;;;;10366571;28;85766;-51
2021/12/07 13:53:44;;;;;;;;;;;6.30;99.90;;;;;;10368694;28;85035;-51
2021/12/07 13:58:49;;;;;;;;;;;6.40;99.90;;;;;;10366675;28;84125;-47
2021/12/07 14:03:50;;;;;;;;;;;6.30;99.90;;;;;;10367556;28;84756;-51
2021/12/07 14:08:51;;;;;;;;;;;6.10;99.90;;;;;;10367219;28;84211;-48
2021/12/07 14:13:52;;;;;;;;;;;6.00;99.90;;;;;;10366903;28;84926;-49
2021/12/07 14:18:53;;;;;;;;;;;6.00;99.90;;;;;;10366829;28;84817;-50
2021/12/07 14:24:03;;;;;;;;;;;5.80;99.90;;;;;;10365284;28;84210;-48
2021/12/07 14:29:08;;;;;;;;;;;5.80;99.90;;;;;;10366706;28;84076;-48
2021/12/07 14:34:10;;;;;;;;;;;5.70;99.90;;;;;;10366630;28;84256;-49
2021/12/07 14:39:16;;;;;;;;;;;5.60;99.90;;;;;;10364671;28;86144;-48
2021/12/07 14:44:19;;;;;;;;;;;5.60;99.90;;;;;;10366671;28;84098;-49
2021/12/07 14:49:20;;;;;;;;;;;5.40;99.90;;;;;;10368026;28;84788;-48
2021/12/07 14:54:20;;;;;;;;;;;5.30;99.90;;;;;;10368700;28;85069;-57
2021/12/07 14:59:22;;;;;;;;;;;5.10;99.90;;;;;;10371909;28;84191;-58
2021/12/07 15:04:24;;;;;;;;;;;5.10;99.90;;;;;;10373790;28;84883;-55
2021/12/07 15:09:26;;;;;;;;;;;4.90;99.90;;;;;;10361283;28;84934;-46
2021/12/07 15:14:28;;;;;;;;;;;4.80;99.90;;;;;;10352480;28;84855;-45
2021/12/07 15:19:29;;;;;;;;;;;4.70;99.90;;;;;;10351843;28;84595;-45
2021/12/07 15:24:33;;;;;;;;;;;4.70;99.90;;;;;;10347662;28;84433;-45
2021/12/07 15:29:34;;;;;;;;;;;4.70;99.90;;;;;;10357514;28;85138;-46
2021/12/07 15:34:39;;;;;;;;;;;4.70;99.90;;;;;;10372543;28;84766;-47
2021/12/07 15:39:59;;;;;;;;;;;4.70;99.90;;;;;;10373694;28;85996;-49
2021/12/07 15:45:07;;;;;;;;;;;4.60;99.90;;;;;;10373249;28;84701;-49
2021/12/07 15:50:11;;;;;;;;;;;4.40;99.90;;;;;;10372794;28;84130;-47
2021/12/07 15:55:17;;;;;;;;;;;4.40;99.90;;;;;;10369313;28;84905;-52
2021/12/07 16:00:20;;;;;;;;;;;4.40;99.90;;;;;;10366934;28;84874;-48
2021/12/07 16:05:22;;;;;;;;;;;4.40;99.90;;;;;;10371710;28;84188;-46
2021/12/07 16:10:25;;;;;;;;;;;4.40;99.90;;;;;;10367023;28;86960;-47
2021/12/07 16:15:25;;;;;;;;;;;4.30;99.90;;;;;;10368276;28;84953;-46
2021/12/07 16:20:26;;;;;;;;;;;4.30;99.90;;;;;;10369778;22;84887;-54
2021/12/07 16:25:26;;;;;;;;;;;4.20;99.90;;;;;;10336423;28;84831;-56
2021/12/07 16:30:27;;;;;;;;;;;4.10;99.90;;;;;;10338338;28;84717;-55
2021/12/07 16:35:29;;;;;;;;;;;4.10;99.90;;;;;;10334059;28;85141;-55
2021/12/07 16:40:29;;;;;;;;;;;4.00;99.90;;;;;;10333750;28;84271;-52
2021/12/07 16:45:36;;;;;;;;;;;3.90;99.90;;;;;;10332226;28;86973;-56
2021/12/07 16:50:37;;;;;;;;;;;3.90;99.90;;;;;;10349568;28;84106;-51
2021/12/07 16:55:38;;;;;;;;;;;3.80;99.90;;;;;;10366589;28;84915;-53
2021/12/07 17:00:39;;;;;;;;;;;3.80;99.90;;;;;;10368047;28;84761;-52
2021/12/07 17:05:41;;;;;;;;;;;3.80;99.90;;;;;;10354257;28;84907;-52
2021/12/07 17:10:42;;;;;;;;;;;3.80;99.90;;;;;;10367762;28;84998;-49
2021/12/07 17:15:43;;;;;;;;;;;3.80;99.90;;;;;;10359531;28;84277;-51
2021/12/07 17:20:44;;;;;;;;;;;3.70;99.90;;;;;;10366980;28;84390;-55
2021/12/07 17:25:45;;;;;;;;;;;3.70;99.90;;;;;;10366732;28;84999;-52
2021/12/07 17:30:47;;;;;;;;;;;3.50;99.90;;;;;;10367953;28;85124;-50
2021/12/07 17:35:48;;;;;;;;;;;3.60;99.90;;;;;;10365395;28;84925;-50
2021/12/07 17:40:50;;;;;;;;;;;3.60;99.90;;;;;;10369518;28;84678;-54
2021/12/07 17:45:51;;;;;;;;;;;3.60;99.90;;;;;;10355647;28;84365;-55
2021/12/07 17:50:52;;;;;;;;;;;3.50;99.90;;;;;;10347440;28;84340;-54
2021/12/07 17:55:53;;;;;;;;;;;3.60;99.90;;;;;;10346718;28;84236;-51
2021/12/07 18:00:53;;;;;;;;;;;3.50;99.90;;;;;;10337501;28;84908;-49
2021/12/07 18:05:55;;;;;;;;;;;3.50;99.90;;;;;;10342954;28;84271;-56
2021/12/07 18:10:55;;;;;;;;;;;3.50;99.90;;;;;;10337376;28;84975;-54
2021/12/07 18:15:56;;;;;;;;;;;3.40;99.90;;;;;;10335284;28;85295;-55
2021/12/07 18:20:57;;;;;;;;;;;3.40;99.90;;;;;;10339189;28;84713;-56
2021/12/07 18:25:57;;;;;;;;;;;3.40;99.90;;;;;;10364827;28;85050;-55
2021/12/07 18:30:58;;;;;;;;;;;3.40;99.90;;;;;;10368658;28;84258;-55
2021/12/07 18:35:59;;;;;;;;;;;3.40;99.90;;;;;;10370130;28;84298;-53
2021/12/07 18:41:03;;;;;;;;;;;3.40;99.90;;;;;;10370954;28;85890;-55
2021/12/07 18:46:04;;;;;;;;;;;3.50;99.90;;;;;;10368946;28;84859;-56
2021/12/07 18:51:06;;;;;;;;;;;3.40;99.90;;;;;;10358248;28;84950;-55
2021/12/07 18:56:07;;;;;;;;;;;3.50;99.90;;;;;;10363940;28;84805;-51
2021/12/07 19:01:12;;;;;;;;;;;3.50;99.90;;;;;;10368219;28;84899;-51
2021/12/07 19:06:13;;;;;;;;;;;3.40;99.90;;;;;;10363842;28;84801;-53
2021/12/07 19:11:15;;;;;;;;;;;3.50;99.90;;;;;;10368387;28;84980;-56
2021/12/07 19:16:16;;;;;;;;;;;3.40;99.90;;;;;;10367702;28;85483;-51
2021/12/07 19:21:17;;;;;;;;;;;3.40;99.90;;;;;;10373432;28;84257;-54
2021/12/07 19:26:18;;;;;;;;;;;3.40;99.90;;;;;;10374042;28;84266;-55
2021/12/07 19:31:18;;;;;;;;;;;3.30;99.90;;;;;;10372058;28;84853;-57
2021/12/07 19:36:20;;;;;;;;;;;3.40;99.90;;;;;;10373671;28;84369;-59
2021/12/07 19:41:20;;;;;;;;;;;3.40;99.90;;;;;;10373737;28;85175;-54
2021/12/07 19:46:21;;;;;;;;;;;3.50;99.90;;;;;;10369158;28;87002;-55
2021/12/07 19:51:24;;;;;;;;;;;3.50;99.90;;;;;;10372762;28;85022;-54
2021/12/07 19:56:27;;;;;;;;;;;3.60;99.90;;;;;;10373472;28;84225;-56
2021/12/07 20:01:28;;;;;;;;;;;3.60;99.90;;;;;;10373969;28;84437;-53
2021/12/07 20:06:31;;;;;;;;;;;3.60;99.90;;;;;;10376956;28;84867;-56
2021/12/07 20:11:36;;;;;;;;;;;3.70;99.90;;;;;;10375370;28;84246;-53
2021/12/07 20:16:37;;;;;;;;;;;3.70;99.90;;;;;;10372625;28;84863;-52
2021/12/07 20:21:39;;;;;;;;;;;3.80;99.90;;;;;;10334427;28;85066;-56
2021/12/07 20:26:40;;;;;;;;;;;3.80;99.90;;;;;;10332027;28;85061;-54
2021/12/07 20:31:41;;;;;;;;;;;3.80;99.90;;;;;;10333509;28;85331;-56
2021/12/07 20:36:42;;;;;;;;;;;3.90;99.90;;;;;;10333131;28;84990;-55
2021/12/07 20:41:43;;;;;;;;;;;4.00;99.90;;;;;;10335292;28;84377;-51
2021/12/07 20:46:45;;;;;;;;;;;4.00;99.90;;;;;;10362469;28;85003;-55
2021/12/07 20:51:46;;;;;;;;;;;4.00;99.90;;;;;;10355039;28;84305;-56
2021/12/07 20:56:47;;;;;;;;;;;4.10;99.90;;;;;;10330712;28;85006;-55
2021/12/07 21:01:47;;;;;;;;;;;4.10;99.90;;;;;;10353665;28;84846;-54
2021/12/07 21:06:49;;;;;;;;;;;4.10;99.90;;;;;;10342810;28;84344;-51
2021/12/07 21:11:50;;;;;;;;;;;4.10;99.90;;;;;;10366925;28;85924;-54
2021/12/07 21:16:50;;;;;;;;;;;4.10;99.90;;;;;;10363642;28;84069;-54
2021/12/07 21:21:51;;;;;;;;;;;4.10;99.90;;;;;;10395079;28;84067;-56
2021/12/07 21:26:52;;;;;;;;;;;4.20;99.90;;;;;;10397367;28;85080;-55
2021/12/07 21:31:53;;;;;;;;;;;4.30;99.90;;;;;;10386469;28;84928;-53
2021/12/07 21:36:54;;;;;;;;;;;4.30;99.90;;;;;;10388044;28;84113;-57
2021/12/07 21:41:55;;;;;;;;;;;4.40;99.90;;;;;;10392953;28;85043;-56
2021/12/07 21:46:55;;;;;;;;;;;4.40;99.90;;;;;;10376318;28;84774;-56
2021/12/07 21:51:56;;;;;;;;;;;4.30;99.90;;;;;;10369709;28;84784;-56
2021/12/07 21:56:58;;;;;;;;;;;4.30;99.90;;;;;;10366867;28;87027;-55
2021/12/07 22:01:58;;;;;;;;;;;4.30;99.90;;;;;;10369101;28;84021;-56
2021/12/07 22:06:59;;;;;;;;;;;4.30;99.90;;;;;;10369432;28;84002;-56
2021/12/07 22:12:00;;;;;;;;;;;4.30;99.90;;;;;;10368767;28;85279;-53
2021/12/07 22:17:00;;;;;;;;;;;4.30;99.90;;;;;;10368748;28;84298;-56
2021/12/07 22:22:01;;;;;;;;;;;4.30;99.90;;;;;;10286571;22;84868;-48
2021/12/07 22:27:04;;;;;;;;;;;4.40;99.90;;;;;;10245935;28;84772;-51
2021/12/07 22:32:06;;;;;;;;;;;4.50;99.90;;;;;;10278232;28;86399;-47
2021/12/07 22:37:06;;;;;;;;;;;4.50;99.90;;;;;;10284867;28;85984;-48
2021/12/07 22:42:07;;;;;;;;;;;4.50;99.90;;;;;;10284525;28;86061;-50
2021/12/07 22:47:08;;;;;;;;;;;4.60;99.90;;;;;;10285711;28;84697;-48
2021/12/07 22:52:08;;;;;;;;;;;4.70;99.90;;;;;;10284923;28;85070;-50
2021/12/07 22:57:10;;;;;;;;;;;4.70;99.90;;;;;;10285442;28;85072;-53
2021/12/07 23:02:11;;;;;;;;;;;4.80;99.90;;;;;;10285648;28;85701;-49
2021/12/07 23:07:12;;;;;;;;;;;4.80;99.90;;;;;;10286975;28;84835;-49
2021/12/07 23:12:12;;;;;;;;;;;4.90;99.90;;;;;;10291183;28;87016;-49
2021/12/07 23:17:16;;;;;;;;;;;5.00;99.90;;;;;;10292036;28;84793;-50
2021/12/07 23:22:17;;;;;;;;;;;5.00;99.90;;;;;;10291217;28;84213;-49
2021/12/07 23:27:17;;;;;;;;;;;5.00;99.90;;;;;;10290338;28;86979;-49
2021/12/07 23:32:18;;;;;;;;;;;5.00;99.90;;;;;;10290941;28;84062;-47
2021/12/07 23:37:18;;;;;;;;;;;5.10;99.90;;;;;;10274271;28;84291;-48
2021/12/07 23:42:19;;;;;;;;;;;5.10;99.90;;;;;;10291786;28;84367;-48
2021/12/07 23:47:20;;;;;;;;;;;5.00;99.90;;;;;;10292166;28;84102;-50
2021/12/07 23:52:20;;;;;;;;;;;4.80;99.90;;;;;;10289487;28;87075;-49
2021/12/07 23:57:21;;;;;;;;;;;4.70;99.90;;;;;;10290887;28;84139;-46
